<?xml version="1.0" encoding="UTF-8" standalone="no" ?>
<gpx xmlns="http://www.topografix.com/GPX/1/1" xmlns:xsi="http://www.w3.org/2001/XMLSchema-instance" xsi:schemaLocation="http://www.topografix.com/GPX/1/1 http://www.topografix.com/GPX/1/1/gpx.xsd" version="1.1" creator="VisuGPX - https://www.visugpx.com">
  <metadata>
    <name>Balade au bord de l'étang de l'Or - Mauguio</name>
    <desc><![CDATA[Courte et facile balade pour une belle après-midi d'hiver dans des paysages de lagunes et d'étangs.

Garés sur le parking du club de tir, nous sommes partis à vélo vers les cabanes du Salaison, puis nous avons longé les berges de l'étang par le sentier cabanier.
La lumière de janvier donnait à cette balade et aux paysages une ambiance dorée voire cuivrée splendide.
La route D172 est quand même bien passante et il serait préférable d'écourter la balade en commençant de Mauguio ou en revenant par des petites routes communales au traffic moindre et plus sûres.]]></desc>
  </metadata>
  <trk>
    <name><![CDATA[5 janv. 2020]]></name>
    <trkseg>
      <trkpt lat="43.59992" lon="3.991">
        <ele>4</ele>
        <time>2020-01-05T14:07:14Z</time>
      </trkpt>
      <trkpt lat="43.59992" lon="3.991">
        <ele>4</ele>
        <time>2020-01-05T14:07:15Z</time>
      </trkpt>
      <trkpt lat="43.59993" lon="3.99101">
        <ele>4</ele>
        <time>2020-01-05T14:08:22Z</time>
      </trkpt>
      <trkpt lat="43.59996" lon="3.991">
        <ele>4</ele>
        <time>2020-01-05T14:08:25Z</time>
      </trkpt>
      <trkpt lat="43.59997" lon="3.991">
        <ele>4</ele>
        <time>2020-01-05T14:08:26Z</time>
      </trkpt>
      <trkpt lat="43.59999" lon="3.99101">
        <ele>4</ele>
        <time>2020-01-05T14:08:27Z</time>
      </trkpt>
      <trkpt lat="43.60001" lon="3.99104">
        <ele>5</ele>
        <time>2020-01-05T14:08:28Z</time>
      </trkpt>
      <trkpt lat="43.60042" lon="3.9923">
        <ele>5</ele>
        <time>2020-01-05T14:08:52Z</time>
      </trkpt>
      <trkpt lat="43.60092" lon="3.99342">
        <ele>4</ele>
        <time>2020-01-05T14:09:13Z</time>
      </trkpt>
      <trkpt lat="43.60139" lon="3.99426">
        <ele>5</ele>
        <time>2020-01-05T14:09:30Z</time>
      </trkpt>
      <trkpt lat="43.60194" lon="3.99601">
        <ele>4</ele>
        <time>2020-01-05T14:10:00Z</time>
      </trkpt>
      <trkpt lat="43.602" lon="3.99617">
        <ele>4</ele>
        <time>2020-01-05T14:10:03Z</time>
      </trkpt>
      <trkpt lat="43.60219" lon="3.99646">
        <ele>4</ele>
        <time>2020-01-05T14:10:09Z</time>
      </trkpt>
      <trkpt lat="43.60331" lon="3.99764">
        <ele>4</ele>
        <time>2020-01-05T14:10:39Z</time>
      </trkpt>
      <trkpt lat="43.60389" lon="3.99827">
        <ele>5</ele>
        <time>2020-01-05T14:10:55Z</time>
      </trkpt>
      <trkpt lat="43.60391" lon="3.99832">
        <ele>5</ele>
        <time>2020-01-05T14:10:56Z</time>
      </trkpt>
      <trkpt lat="43.60392" lon="3.99837">
        <ele>5</ele>
        <time>2020-01-05T14:10:57Z</time>
      </trkpt>
      <trkpt lat="43.60391" lon="3.99843">
        <ele>4</ele>
        <time>2020-01-05T14:10:58Z</time>
      </trkpt>
      <trkpt lat="43.6028" lon="3.99987">
        <ele>4</ele>
        <time>2020-01-05T14:11:28Z</time>
      </trkpt>
      <trkpt lat="43.602" lon="4.00119">
        <ele>3</ele>
        <time>2020-01-05T14:11:53Z</time>
      </trkpt>
      <trkpt lat="43.60193" lon="4.00134">
        <ele>3</ele>
        <time>2020-01-05T14:11:56Z</time>
      </trkpt>
      <trkpt lat="43.60192" lon="4.00138">
        <ele>3</ele>
        <time>2020-01-05T14:11:57Z</time>
      </trkpt>
      <trkpt lat="43.60191" lon="4.00141">
        <ele>3</ele>
        <time>2020-01-05T14:11:58Z</time>
      </trkpt>
      <trkpt lat="43.6019" lon="4.00142">
        <ele>3</ele>
        <time>2020-01-05T14:11:59Z</time>
      </trkpt>
      <trkpt lat="43.6019" lon="4.00142">
        <ele>3</ele>
        <time>2020-01-05T14:12:07Z</time>
      </trkpt>
      <trkpt lat="43.60187" lon="4.00143">
        <ele>3</ele>
        <time>2020-01-05T14:12:25Z</time>
      </trkpt>
      <trkpt lat="43.60187" lon="4.00146">
        <ele>3</ele>
        <time>2020-01-05T14:12:37Z</time>
      </trkpt>
      <trkpt lat="43.60187" lon="4.00149">
        <ele>3</ele>
        <time>2020-01-05T14:12:38Z</time>
      </trkpt>
      <trkpt lat="43.60189" lon="4.00151">
        <ele>3</ele>
        <time>2020-01-05T14:12:40Z</time>
      </trkpt>
      <trkpt lat="43.60194" lon="4.00149">
        <ele>3</ele>
        <time>2020-01-05T14:12:44Z</time>
      </trkpt>
      <trkpt lat="43.60195" lon="4.00148">
        <ele>3</ele>
        <time>2020-01-05T14:12:47Z</time>
      </trkpt>
      <trkpt lat="43.60199" lon="4.00147">
        <ele>3</ele>
        <time>2020-01-05T14:13:46Z</time>
      </trkpt>
      <trkpt lat="43.60202" lon="4.00151">
        <ele>3</ele>
        <time>2020-01-05T14:13:49Z</time>
      </trkpt>
      <trkpt lat="43.60218" lon="4.00172">
        <ele>2</ele>
        <time>2020-01-05T14:13:56Z</time>
      </trkpt>
      <trkpt lat="43.60242" lon="4.00223">
        <ele>2</ele>
        <time>2020-01-05T14:14:07Z</time>
      </trkpt>
      <trkpt lat="43.60247" lon="4.0024">
        <ele>2</ele>
        <time>2020-01-05T14:14:10Z</time>
      </trkpt>
      <trkpt lat="43.60252" lon="4.00277">
        <ele>2</ele>
        <time>2020-01-05T14:14:16Z</time>
      </trkpt>
      <trkpt lat="43.60258" lon="4.00298">
        <ele>3</ele>
        <time>2020-01-05T14:14:20Z</time>
      </trkpt>
      <trkpt lat="43.60258" lon="4.00303">
        <ele>3</ele>
        <time>2020-01-05T14:14:21Z</time>
      </trkpt>
      <trkpt lat="43.60256" lon="4.00308">
        <ele>3</ele>
        <time>2020-01-05T14:14:22Z</time>
      </trkpt>
      <trkpt lat="43.6025" lon="4.00314">
        <ele>3</ele>
        <time>2020-01-05T14:14:24Z</time>
      </trkpt>
      <trkpt lat="43.60239" lon="4.00319">
        <ele>3</ele>
        <time>2020-01-05T14:14:27Z</time>
      </trkpt>
      <trkpt lat="43.60213" lon="4.00343">
        <ele>3</ele>
        <time>2020-01-05T14:14:34Z</time>
      </trkpt>
      <trkpt lat="43.60199" lon="4.00362">
        <ele>3</ele>
        <time>2020-01-05T14:14:38Z</time>
      </trkpt>
      <trkpt lat="43.6019" lon="4.00381">
        <ele>2</ele>
        <time>2020-01-05T14:14:41Z</time>
      </trkpt>
      <trkpt lat="43.60184" lon="4.004">
        <ele>2</ele>
        <time>2020-01-05T14:14:44Z</time>
      </trkpt>
      <trkpt lat="43.6017" lon="4.00602">
        <ele>3</ele>
        <time>2020-01-05T14:15:14Z</time>
      </trkpt>
      <trkpt lat="43.60154" lon="4.00764">
        <ele>3</ele>
        <time>2020-01-05T14:15:39Z</time>
      </trkpt>
      <trkpt lat="43.60149" lon="4.00782">
        <ele>3</ele>
        <time>2020-01-05T14:15:42Z</time>
      </trkpt>
      <trkpt lat="43.60149" lon="4.00801">
        <ele>3</ele>
        <time>2020-01-05T14:15:45Z</time>
      </trkpt>
      <trkpt lat="43.60152" lon="4.00814">
        <ele>3</ele>
        <time>2020-01-05T14:15:47Z</time>
      </trkpt>
      <trkpt lat="43.60156" lon="4.00827">
        <ele>3</ele>
        <time>2020-01-05T14:15:49Z</time>
      </trkpt>
      <trkpt lat="43.60164" lon="4.00842">
        <ele>4</ele>
        <time>2020-01-05T14:15:52Z</time>
      </trkpt>
      <trkpt lat="43.60168" lon="4.00853">
        <ele>3</ele>
        <time>2020-01-05T14:15:54Z</time>
      </trkpt>
      <trkpt lat="43.60168" lon="4.00859">
        <ele>3</ele>
        <time>2020-01-05T14:15:55Z</time>
      </trkpt>
      <trkpt lat="43.60163" lon="4.00867">
        <ele>3</ele>
        <time>2020-01-05T14:15:57Z</time>
      </trkpt>
      <trkpt lat="43.60119" lon="4.00903">
        <ele>3</ele>
        <time>2020-01-05T14:16:08Z</time>
      </trkpt>
      <trkpt lat="43.60028" lon="4.01024">
        <ele>3</ele>
        <time>2020-01-05T14:16:36Z</time>
      </trkpt>
      <trkpt lat="43.60016" lon="4.01054">
        <ele>4</ele>
        <time>2020-01-05T14:16:41Z</time>
      </trkpt>
      <trkpt lat="43.59991" lon="4.01123">
        <ele>3</ele>
        <time>2020-01-05T14:16:52Z</time>
      </trkpt>
      <trkpt lat="43.59986" lon="4.01132">
        <ele>3</ele>
        <time>2020-01-05T14:16:54Z</time>
      </trkpt>
      <trkpt lat="43.59972" lon="4.01145">
        <ele>3</ele>
        <time>2020-01-05T14:16:59Z</time>
      </trkpt>
      <trkpt lat="43.5997" lon="4.01148">
        <ele>3</ele>
        <time>2020-01-05T14:17:00Z</time>
      </trkpt>
      <trkpt lat="43.59968" lon="4.01152">
        <ele>3</ele>
        <time>2020-01-05T14:17:01Z</time>
      </trkpt>
      <trkpt lat="43.59968" lon="4.01157">
        <ele>3</ele>
        <time>2020-01-05T14:17:02Z</time>
      </trkpt>
      <trkpt lat="43.59976" lon="4.0117">
        <ele>2</ele>
        <time>2020-01-05T14:17:04Z</time>
      </trkpt>
      <trkpt lat="43.5998" lon="4.01178">
        <ele>2</ele>
        <time>2020-01-05T14:17:06Z</time>
      </trkpt>
      <trkpt lat="43.5998" lon="4.01181">
        <ele>2</ele>
        <time>2020-01-05T14:17:07Z</time>
      </trkpt>
      <trkpt lat="43.5998" lon="4.01184">
        <ele>2</ele>
        <time>2020-01-05T14:17:08Z</time>
      </trkpt>
      <trkpt lat="43.59974" lon="4.01198">
        <ele>2</ele>
        <time>2020-01-05T14:17:12Z</time>
      </trkpt>
      <trkpt lat="43.59889" lon="4.01321">
        <ele>2</ele>
        <time>2020-01-05T14:17:42Z</time>
      </trkpt>
      <trkpt lat="43.59841" lon="4.01399">
        <ele>1</ele>
        <time>2020-01-05T14:17:58Z</time>
      </trkpt>
      <trkpt lat="43.59787" lon="4.01521">
        <ele>2</ele>
        <time>2020-01-05T14:18:20Z</time>
      </trkpt>
      <trkpt lat="43.59735" lon="4.01594">
        <ele>2</ele>
        <time>2020-01-05T14:18:36Z</time>
      </trkpt>
      <trkpt lat="43.59694" lon="4.01698">
        <ele>1</ele>
        <time>2020-01-05T14:18:54Z</time>
      </trkpt>
      <trkpt lat="43.59632" lon="4.0177">
        <ele>1</ele>
        <time>2020-01-05T14:19:12Z</time>
      </trkpt>
      <trkpt lat="43.5961" lon="4.01787">
        <ele>1</ele>
        <time>2020-01-05T14:19:18Z</time>
      </trkpt>
      <trkpt lat="43.59585" lon="4.01797">
        <ele>1</ele>
        <time>2020-01-05T14:19:25Z</time>
      </trkpt>
      <trkpt lat="43.59544" lon="4.01806">
        <ele>1</ele>
        <time>2020-01-05T14:19:36Z</time>
      </trkpt>
      <trkpt lat="43.59387" lon="4.01885">
        <ele>1</ele>
        <time>2020-01-05T14:20:06Z</time>
      </trkpt>
      <trkpt lat="43.59234" lon="4.01918">
        <ele>1</ele>
        <time>2020-01-05T14:20:36Z</time>
      </trkpt>
      <trkpt lat="43.59103" lon="4.01946">
        <ele>1</ele>
        <time>2020-01-05T14:21:06Z</time>
      </trkpt>
      <trkpt lat="43.59096" lon="4.01948">
        <ele>1</ele>
        <time>2020-01-05T14:21:08Z</time>
      </trkpt>
      <trkpt lat="43.5909" lon="4.01952">
        <ele>1</ele>
        <time>2020-01-05T14:21:10Z</time>
      </trkpt>
      <trkpt lat="43.59073" lon="4.01967">
        <ele>1</ele>
        <time>2020-01-05T14:21:17Z</time>
      </trkpt>
      <trkpt lat="43.59064" lon="4.01969">
        <ele>1</ele>
        <time>2020-01-05T14:21:20Z</time>
      </trkpt>
      <trkpt lat="43.58946" lon="4.01974">
        <ele>1</ele>
        <time>2020-01-05T14:21:50Z</time>
      </trkpt>
      <trkpt lat="43.58826" lon="4.01987">
        <ele>1</ele>
        <time>2020-01-05T14:22:20Z</time>
      </trkpt>
      <trkpt lat="43.58804" lon="4.01995">
        <ele>1</ele>
        <time>2020-01-05T14:22:27Z</time>
      </trkpt>
      <trkpt lat="43.58798" lon="4.01996">
        <ele>1</ele>
        <time>2020-01-05T14:22:29Z</time>
      </trkpt>
      <trkpt lat="43.58795" lon="4.01995">
        <ele>1</ele>
        <time>2020-01-05T14:22:30Z</time>
      </trkpt>
      <trkpt lat="43.58791" lon="4.01994">
        <ele>1</ele>
        <time>2020-01-05T14:22:32Z</time>
      </trkpt>
      <trkpt lat="43.58779" lon="4.01992">
        <ele>1</ele>
        <time>2020-01-05T14:22:37Z</time>
      </trkpt>
      <trkpt lat="43.5877" lon="4.01993">
        <ele>1</ele>
        <time>2020-01-05T14:22:40Z</time>
      </trkpt>
      <trkpt lat="43.58764" lon="4.01995">
        <ele>1</ele>
        <time>2020-01-05T14:22:42Z</time>
      </trkpt>
      <trkpt lat="43.58752" lon="4.01992">
        <ele>1</ele>
        <time>2020-01-05T14:22:46Z</time>
      </trkpt>
      <trkpt lat="43.58732" lon="4.01985">
        <ele>1</ele>
        <time>2020-01-05T14:22:52Z</time>
      </trkpt>
      <trkpt lat="43.58713" lon="4.01987">
        <ele>1</ele>
        <time>2020-01-05T14:22:58Z</time>
      </trkpt>
      <trkpt lat="43.58704" lon="4.01983">
        <ele>1</ele>
        <time>2020-01-05T14:23:05Z</time>
      </trkpt>
      <trkpt lat="43.587" lon="4.0198">
        <ele>1</ele>
        <time>2020-01-05T14:23:07Z</time>
      </trkpt>
      <trkpt lat="43.58695" lon="4.01978">
        <ele>1</ele>
        <time>2020-01-05T14:23:09Z</time>
      </trkpt>
      <trkpt lat="43.5866" lon="4.01979">
        <ele>1</ele>
        <time>2020-01-05T14:23:21Z</time>
      </trkpt>
      <trkpt lat="43.58657" lon="4.0198">
        <ele>1</ele>
        <time>2020-01-05T14:23:22Z</time>
      </trkpt>
      <trkpt lat="43.58654" lon="4.01981">
        <ele>1</ele>
        <time>2020-01-05T14:23:23Z</time>
      </trkpt>
      <trkpt lat="43.58649" lon="4.01986">
        <ele>1</ele>
        <time>2020-01-05T14:23:25Z</time>
      </trkpt>
      <trkpt lat="43.58647" lon="4.01987">
        <ele>1</ele>
        <time>2020-01-05T14:23:26Z</time>
      </trkpt>
      <trkpt lat="43.58642" lon="4.01987">
        <ele>1</ele>
        <time>2020-01-05T14:23:28Z</time>
      </trkpt>
      <trkpt lat="43.58622" lon="4.01993">
        <ele>1</ele>
        <time>2020-01-05T14:23:35Z</time>
      </trkpt>
      <trkpt lat="43.58619" lon="4.01995">
        <ele>1</ele>
        <time>2020-01-05T14:23:36Z</time>
      </trkpt>
      <trkpt lat="43.58617" lon="4.01998">
        <ele>1</ele>
        <time>2020-01-05T14:23:37Z</time>
      </trkpt>
      <trkpt lat="43.5861" lon="4.02002">
        <ele>1</ele>
        <time>2020-01-05T14:23:40Z</time>
      </trkpt>
      <trkpt lat="43.58605" lon="4.02002">
        <ele>1</ele>
        <time>2020-01-05T14:23:42Z</time>
      </trkpt>
      <trkpt lat="43.58596" lon="4.01996">
        <ele>1</ele>
        <time>2020-01-05T14:23:47Z</time>
      </trkpt>
      <trkpt lat="43.58594" lon="4.01995">
        <ele>1</ele>
        <time>2020-01-05T14:23:48Z</time>
      </trkpt>
      <trkpt lat="43.5859" lon="4.01992">
        <ele>1</ele>
        <time>2020-01-05T14:23:50Z</time>
      </trkpt>
      <trkpt lat="43.58579" lon="4.01991">
        <ele>1</ele>
        <time>2020-01-05T14:23:55Z</time>
      </trkpt>
      <trkpt lat="43.58574" lon="4.0199">
        <ele>1</ele>
        <time>2020-01-05T14:23:57Z</time>
      </trkpt>
      <trkpt lat="43.58569" lon="4.01989">
        <ele>2</ele>
        <time>2020-01-05T14:23:59Z</time>
      </trkpt>
      <trkpt lat="43.58544" lon="4.01994">
        <ele>2</ele>
        <time>2020-01-05T14:24:11Z</time>
      </trkpt>
      <trkpt lat="43.58541" lon="4.01996">
        <ele>2</ele>
        <time>2020-01-05T14:24:13Z</time>
      </trkpt>
      <trkpt lat="43.58518" lon="4.01997">
        <ele>3</ele>
        <time>2020-01-05T14:24:33Z</time>
      </trkpt>
      <trkpt lat="43.58525" lon="4.01998">
        <ele>3</ele>
        <time>2020-01-05T14:27:25Z</time>
      </trkpt>
      <trkpt lat="43.5853" lon="4.01998">
        <ele>3</ele>
        <time>2020-01-05T14:27:28Z</time>
      </trkpt>
      <trkpt lat="43.58532" lon="4.01999">
        <ele>3</ele>
        <time>2020-01-05T14:27:29Z</time>
      </trkpt>
      <trkpt lat="43.58541" lon="4.01997">
        <ele>2</ele>
        <time>2020-01-05T14:27:34Z</time>
      </trkpt>
      <trkpt lat="43.58561" lon="4.0199">
        <ele>2</ele>
        <time>2020-01-05T14:27:42Z</time>
      </trkpt>
      <trkpt lat="43.58579" lon="4.0199">
        <ele>1</ele>
        <time>2020-01-05T14:27:48Z</time>
      </trkpt>
      <trkpt lat="43.58595" lon="4.01996">
        <ele>1</ele>
        <time>2020-01-05T14:27:54Z</time>
      </trkpt>
      <trkpt lat="43.58597" lon="4.01997">
        <ele>1</ele>
        <time>2020-01-05T14:27:55Z</time>
      </trkpt>
      <trkpt lat="43.586" lon="4.01999">
        <ele>1</ele>
        <time>2020-01-05T14:27:57Z</time>
      </trkpt>
      <trkpt lat="43.58603" lon="4.02002">
        <ele>1</ele>
        <time>2020-01-05T14:28:00Z</time>
      </trkpt>
      <trkpt lat="43.58605" lon="4.02003">
        <ele>1</ele>
        <time>2020-01-05T14:28:01Z</time>
      </trkpt>
      <trkpt lat="43.58608" lon="4.02005">
        <ele>1</ele>
        <time>2020-01-05T14:28:04Z</time>
      </trkpt>
      <trkpt lat="43.58611" lon="4.02003">
        <ele>1</ele>
        <time>2020-01-05T14:28:54Z</time>
      </trkpt>
      <trkpt lat="43.58612" lon="4.02003">
        <ele>1</ele>
        <time>2020-01-05T14:28:55Z</time>
      </trkpt>
      <trkpt lat="43.58613" lon="4.02001">
        <ele>1</ele>
        <time>2020-01-05T14:28:56Z</time>
      </trkpt>
      <trkpt lat="43.58622" lon="4.01994">
        <ele>1</ele>
        <time>2020-01-05T14:29:03Z</time>
      </trkpt>
      <trkpt lat="43.58624" lon="4.01993">
        <ele>1</ele>
        <time>2020-01-05T14:29:04Z</time>
      </trkpt>
      <trkpt lat="43.5863" lon="4.01991">
        <ele>1</ele>
        <time>2020-01-05T14:29:07Z</time>
      </trkpt>
      <trkpt lat="43.58646" lon="4.01988">
        <ele>1</ele>
        <time>2020-01-05T14:29:18Z</time>
      </trkpt>
      <trkpt lat="43.58647" lon="4.01988">
        <ele>1</ele>
        <time>2020-01-05T14:29:26Z</time>
      </trkpt>
      <trkpt lat="43.58652" lon="4.01984">
        <ele>1</ele>
        <time>2020-01-05T14:30:44Z</time>
      </trkpt>
      <trkpt lat="43.58658" lon="4.0198">
        <ele>1</ele>
        <time>2020-01-05T14:30:49Z</time>
      </trkpt>
      <trkpt lat="43.592" lon="4.01918">
        <ele>1</ele>
        <time>2020-01-05T14:42:09Z</time>
      </trkpt>
      <trkpt lat="43.592" lon="4.01921">
        <ele>1</ele>
        <time>2020-01-05T14:42:11Z</time>
      </trkpt>
      <trkpt lat="43.59202" lon="4.01921">
        <ele>1</ele>
        <time>2020-01-05T14:42:14Z</time>
      </trkpt>
      <trkpt lat="43.59203" lon="4.01924">
        <ele>1</ele>
        <time>2020-01-05T14:42:16Z</time>
      </trkpt>
      <trkpt lat="43.59207" lon="4.01925">
        <ele>1</ele>
        <time>2020-01-05T14:42:20Z</time>
      </trkpt>
      <trkpt lat="43.59207" lon="4.01923">
        <ele>1</ele>
        <time>2020-01-05T14:43:02Z</time>
      </trkpt>
      <trkpt lat="43.59223" lon="4.01921">
        <ele>1</ele>
        <time>2020-01-05T14:43:09Z</time>
      </trkpt>
      <trkpt lat="43.59359" lon="4.01891">
        <ele>2</ele>
        <time>2020-01-05T14:43:39Z</time>
      </trkpt>
      <trkpt lat="43.59446" lon="4.01867">
        <ele>1</ele>
        <time>2020-01-05T14:43:58Z</time>
      </trkpt>
      <trkpt lat="43.59539" lon="4.01813">
        <ele>1</ele>
        <time>2020-01-05T14:44:21Z</time>
      </trkpt>
      <trkpt lat="43.59569" lon="4.01807">
        <ele>1</ele>
        <time>2020-01-05T14:44:30Z</time>
      </trkpt>
      <trkpt lat="43.59575" lon="4.01808">
        <ele>1</ele>
        <time>2020-01-05T14:44:32Z</time>
      </trkpt>
      <trkpt lat="43.59577" lon="4.01812">
        <ele>1</ele>
        <time>2020-01-05T14:44:34Z</time>
      </trkpt>
      <trkpt lat="43.59575" lon="4.01818">
        <ele>1</ele>
        <time>2020-01-05T14:44:36Z</time>
      </trkpt>
      <trkpt lat="43.59513" lon="4.01954">
        <ele>1</ele>
        <time>2020-01-05T14:45:06Z</time>
      </trkpt>
      <trkpt lat="43.59502" lon="4.02009">
        <ele>1</ele>
        <time>2020-01-05T14:45:19Z</time>
      </trkpt>
      <trkpt lat="43.59497" lon="4.02035">
        <ele>1</ele>
        <time>2020-01-05T14:45:25Z</time>
      </trkpt>
      <trkpt lat="43.59495" lon="4.02045">
        <ele>1</ele>
        <time>2020-01-05T14:45:28Z</time>
      </trkpt>
      <trkpt lat="43.59494" lon="4.02062">
        <ele>1</ele>
        <time>2020-01-05T14:45:32Z</time>
      </trkpt>
      <trkpt lat="43.59494" lon="4.02065">
        <ele>1</ele>
        <time>2020-01-05T14:45:33Z</time>
      </trkpt>
      <trkpt lat="43.59498" lon="4.02072">
        <ele>1</ele>
        <time>2020-01-05T14:45:35Z</time>
      </trkpt>
      <trkpt lat="43.59503" lon="4.02079">
        <ele>1</ele>
        <time>2020-01-05T14:45:38Z</time>
      </trkpt>
      <trkpt lat="43.59505" lon="4.02083">
        <ele>1</ele>
        <time>2020-01-05T14:45:40Z</time>
      </trkpt>
      <trkpt lat="43.5952" lon="4.02095">
        <ele>1</ele>
        <time>2020-01-05T14:45:45Z</time>
      </trkpt>
      <trkpt lat="43.59542" lon="4.02117">
        <ele>1</ele>
        <time>2020-01-05T14:45:53Z</time>
      </trkpt>
      <trkpt lat="43.59585" lon="4.02147">
        <ele>1</ele>
        <time>2020-01-05T14:46:07Z</time>
      </trkpt>
      <trkpt lat="43.59603" lon="4.02171">
        <ele>1</ele>
        <time>2020-01-05T14:46:15Z</time>
      </trkpt>
      <trkpt lat="43.59623" lon="4.02205">
        <ele>1</ele>
        <time>2020-01-05T14:46:24Z</time>
      </trkpt>
      <trkpt lat="43.59635" lon="4.02227">
        <ele>1</ele>
        <time>2020-01-05T14:46:29Z</time>
      </trkpt>
      <trkpt lat="43.59646" lon="4.02244">
        <ele>1</ele>
        <time>2020-01-05T14:46:33Z</time>
      </trkpt>
      <trkpt lat="43.59657" lon="4.0226">
        <ele>1</ele>
        <time>2020-01-05T14:46:37Z</time>
      </trkpt>
      <trkpt lat="43.59676" lon="4.02277">
        <ele>1</ele>
        <time>2020-01-05T14:46:44Z</time>
      </trkpt>
      <trkpt lat="43.59702" lon="4.02307">
        <ele>1</ele>
        <time>2020-01-05T14:46:53Z</time>
      </trkpt>
      <trkpt lat="43.59707" lon="4.02312">
        <ele>1</ele>
        <time>2020-01-05T14:46:55Z</time>
      </trkpt>
      <trkpt lat="43.59733" lon="4.02348">
        <ele>1</ele>
        <time>2020-01-05T14:47:07Z</time>
      </trkpt>
      <trkpt lat="43.59774" lon="4.02426">
        <ele>1</ele>
        <time>2020-01-05T14:47:29Z</time>
      </trkpt>
      <trkpt lat="43.59777" lon="4.02434">
        <ele>1</ele>
        <time>2020-01-05T14:47:31Z</time>
      </trkpt>
      <trkpt lat="43.59792" lon="4.0246">
        <ele>1</ele>
        <time>2020-01-05T14:47:41Z</time>
      </trkpt>
      <trkpt lat="43.59795" lon="4.02464">
        <ele>1</ele>
        <time>2020-01-05T14:47:43Z</time>
      </trkpt>
      <trkpt lat="43.598" lon="4.02473">
        <ele>1</ele>
        <time>2020-01-05T14:47:46Z</time>
      </trkpt>
      <trkpt lat="43.59804" lon="4.02484">
        <ele>1</ele>
        <time>2020-01-05T14:47:49Z</time>
      </trkpt>
      <trkpt lat="43.5981" lon="4.02497">
        <ele>1</ele>
        <time>2020-01-05T14:47:53Z</time>
      </trkpt>
      <trkpt lat="43.59812" lon="4.02498">
        <ele>1</ele>
        <time>2020-01-05T14:47:54Z</time>
      </trkpt>
      <trkpt lat="43.59815" lon="4.02499">
        <ele>1</ele>
        <time>2020-01-05T14:47:55Z</time>
      </trkpt>
      <trkpt lat="43.59818" lon="4.02499">
        <ele>1</ele>
        <time>2020-01-05T14:47:56Z</time>
      </trkpt>
      <trkpt lat="43.59821" lon="4.02497">
        <ele>1</ele>
        <time>2020-01-05T14:47:57Z</time>
      </trkpt>
      <trkpt lat="43.59837" lon="4.0248">
        <ele>1</ele>
        <time>2020-01-05T14:48:04Z</time>
      </trkpt>
      <trkpt lat="43.59847" lon="4.02472">
        <ele>1</ele>
        <time>2020-01-05T14:48:08Z</time>
      </trkpt>
      <trkpt lat="43.59849" lon="4.0247">
        <ele>1</ele>
        <time>2020-01-05T14:48:09Z</time>
      </trkpt>
      <trkpt lat="43.59853" lon="4.02463">
        <ele>1</ele>
        <time>2020-01-05T14:48:11Z</time>
      </trkpt>
      <trkpt lat="43.59854" lon="4.02455">
        <ele>1</ele>
        <time>2020-01-05T14:48:13Z</time>
      </trkpt>
      <trkpt lat="43.59854" lon="4.02435">
        <ele>1</ele>
        <time>2020-01-05T14:48:18Z</time>
      </trkpt>
      <trkpt lat="43.59857" lon="4.02422">
        <ele>1</ele>
        <time>2020-01-05T14:48:21Z</time>
      </trkpt>
      <trkpt lat="43.59892" lon="4.02345">
        <ele>1</ele>
        <time>2020-01-05T14:48:39Z</time>
      </trkpt>
      <trkpt lat="43.59895" lon="4.02341">
        <ele>1</ele>
        <time>2020-01-05T14:48:40Z</time>
      </trkpt>
      <trkpt lat="43.59898" lon="4.02337">
        <ele>1</ele>
        <time>2020-01-05T14:48:41Z</time>
      </trkpt>
      <trkpt lat="43.59908" lon="4.02332">
        <ele>1</ele>
        <time>2020-01-05T14:48:44Z</time>
      </trkpt>
      <trkpt lat="43.5992" lon="4.02328">
        <ele>1</ele>
        <time>2020-01-05T14:48:48Z</time>
      </trkpt>
      <trkpt lat="43.59923" lon="4.02328">
        <ele>1</ele>
        <time>2020-01-05T14:48:49Z</time>
      </trkpt>
      <trkpt lat="43.59925" lon="4.02329">
        <ele>1</ele>
        <time>2020-01-05T14:48:50Z</time>
      </trkpt>
      <trkpt lat="43.59928" lon="4.0233">
        <ele>1</ele>
        <time>2020-01-05T14:48:51Z</time>
      </trkpt>
      <trkpt lat="43.59929" lon="4.02332">
        <ele>1</ele>
        <time>2020-01-05T14:48:52Z</time>
      </trkpt>
      <trkpt lat="43.59929" lon="4.02337">
        <ele>1</ele>
        <time>2020-01-05T14:48:54Z</time>
      </trkpt>
      <trkpt lat="43.59928" lon="4.02346">
        <ele>1</ele>
        <time>2020-01-05T14:48:57Z</time>
      </trkpt>
      <trkpt lat="43.59916" lon="4.02381">
        <ele>1</ele>
        <time>2020-01-05T14:49:09Z</time>
      </trkpt>
      <trkpt lat="43.59915" lon="4.02384">
        <ele>1</ele>
        <time>2020-01-05T14:49:10Z</time>
      </trkpt>
      <trkpt lat="43.59916" lon="4.02392">
        <ele>1</ele>
        <time>2020-01-05T14:49:12Z</time>
      </trkpt>
      <trkpt lat="43.59935" lon="4.02457">
        <ele>1</ele>
        <time>2020-01-05T14:49:28Z</time>
      </trkpt>
      <trkpt lat="43.59935" lon="4.02466">
        <ele>1</ele>
        <time>2020-01-05T14:49:30Z</time>
      </trkpt>
      <trkpt lat="43.59933" lon="4.02483">
        <ele>1</ele>
        <time>2020-01-05T14:49:34Z</time>
      </trkpt>
      <trkpt lat="43.59925" lon="4.02521">
        <ele>1</ele>
        <time>2020-01-05T14:49:42Z</time>
      </trkpt>
      <trkpt lat="43.59922" lon="4.02554">
        <ele>1</ele>
        <time>2020-01-05T14:49:49Z</time>
      </trkpt>
      <trkpt lat="43.59922" lon="4.02558">
        <ele>1</ele>
        <time>2020-01-05T14:49:50Z</time>
      </trkpt>
      <trkpt lat="43.5992" lon="4.02562">
        <ele>1</ele>
        <time>2020-01-05T14:49:51Z</time>
      </trkpt>
      <trkpt lat="43.59918" lon="4.02566">
        <ele>1</ele>
        <time>2020-01-05T14:49:52Z</time>
      </trkpt>
      <trkpt lat="43.59912" lon="4.02571">
        <ele>1</ele>
        <time>2020-01-05T14:49:54Z</time>
      </trkpt>
      <trkpt lat="43.59897" lon="4.02577">
        <ele>1</ele>
        <time>2020-01-05T14:49:58Z</time>
      </trkpt>
      <trkpt lat="43.59889" lon="4.02582">
        <ele>1</ele>
        <time>2020-01-05T14:50:01Z</time>
      </trkpt>
      <trkpt lat="43.59887" lon="4.02584">
        <ele>1</ele>
        <time>2020-01-05T14:50:02Z</time>
      </trkpt>
      <trkpt lat="43.59884" lon="4.02592">
        <ele>1</ele>
        <time>2020-01-05T14:50:05Z</time>
      </trkpt>
      <trkpt lat="43.59882" lon="4.02593">
        <ele>1</ele>
        <time>2020-01-05T14:50:10Z</time>
      </trkpt>
      <trkpt lat="43.59884" lon="4.02594">
        <ele>1</ele>
        <time>2020-01-05T14:50:18Z</time>
      </trkpt>
      <trkpt lat="43.59889" lon="4.02606">
        <ele>1</ele>
        <time>2020-01-05T14:50:23Z</time>
      </trkpt>
      <trkpt lat="43.59892" lon="4.02617">
        <ele>1</ele>
        <time>2020-01-05T14:50:27Z</time>
      </trkpt>
      <trkpt lat="43.59894" lon="4.02619">
        <ele>1</ele>
        <time>2020-01-05T14:50:29Z</time>
      </trkpt>
      <trkpt lat="43.59895" lon="4.02621">
        <ele>1</ele>
        <time>2020-01-05T14:50:31Z</time>
      </trkpt>
      <trkpt lat="43.59895" lon="4.02625">
        <ele>1</ele>
        <time>2020-01-05T14:50:33Z</time>
      </trkpt>
      <trkpt lat="43.59899" lon="4.02639">
        <ele>1</ele>
        <time>2020-01-05T14:50:42Z</time>
      </trkpt>
      <trkpt lat="43.599" lon="4.0264">
        <ele>1</ele>
        <time>2020-01-05T14:50:44Z</time>
      </trkpt>
      <trkpt lat="43.59902" lon="4.02641">
        <ele>1</ele>
        <time>2020-01-05T14:50:46Z</time>
      </trkpt>
      <trkpt lat="43.59947" lon="4.02634">
        <ele>1</ele>
        <time>2020-01-05T14:51:02Z</time>
      </trkpt>
      <trkpt lat="43.59952" lon="4.02637">
        <ele>1</ele>
        <time>2020-01-05T14:51:04Z</time>
      </trkpt>
      <trkpt lat="43.59954" lon="4.0264">
        <ele>1</ele>
        <time>2020-01-05T14:51:05Z</time>
      </trkpt>
      <trkpt lat="43.59955" lon="4.02643">
        <ele>1</ele>
        <time>2020-01-05T14:51:06Z</time>
      </trkpt>
      <trkpt lat="43.59957" lon="4.02646">
        <ele>1</ele>
        <time>2020-01-05T14:51:07Z</time>
      </trkpt>
      <trkpt lat="43.59957" lon="4.02648">
        <ele>1</ele>
        <time>2020-01-05T14:51:08Z</time>
      </trkpt>
      <trkpt lat="43.59958" lon="4.02654">
        <ele>1</ele>
        <time>2020-01-05T14:51:10Z</time>
      </trkpt>
      <trkpt lat="43.59959" lon="4.02657">
        <ele>1</ele>
        <time>2020-01-05T14:51:11Z</time>
      </trkpt>
      <trkpt lat="43.5996" lon="4.02664">
        <ele>1</ele>
        <time>2020-01-05T14:51:13Z</time>
      </trkpt>
      <trkpt lat="43.5996" lon="4.02668">
        <ele>1</ele>
        <time>2020-01-05T14:51:14Z</time>
      </trkpt>
      <trkpt lat="43.59958" lon="4.0267">
        <ele>1</ele>
        <time>2020-01-05T14:51:15Z</time>
      </trkpt>
      <trkpt lat="43.59957" lon="4.02673">
        <ele>1</ele>
        <time>2020-01-05T14:51:16Z</time>
      </trkpt>
      <trkpt lat="43.59946" lon="4.02677">
        <ele>1</ele>
        <time>2020-01-05T14:51:21Z</time>
      </trkpt>
      <trkpt lat="43.59944" lon="4.02678">
        <ele>1</ele>
        <time>2020-01-05T14:51:22Z</time>
      </trkpt>
      <trkpt lat="43.59942" lon="4.02679">
        <ele>1</ele>
        <time>2020-01-05T14:51:24Z</time>
      </trkpt>
      <trkpt lat="43.59939" lon="4.02682">
        <ele>1</ele>
        <time>2020-01-05T14:51:26Z</time>
      </trkpt>
      <trkpt lat="43.59937" lon="4.02684">
        <ele>1</ele>
        <time>2020-01-05T14:51:27Z</time>
      </trkpt>
      <trkpt lat="43.59936" lon="4.02689">
        <ele>1</ele>
        <time>2020-01-05T14:51:29Z</time>
      </trkpt>
      <trkpt lat="43.59936" lon="4.02701">
        <ele>1</ele>
        <time>2020-01-05T14:51:32Z</time>
      </trkpt>
      <trkpt lat="43.59939" lon="4.02713">
        <ele>1</ele>
        <time>2020-01-05T14:51:35Z</time>
      </trkpt>
      <trkpt lat="43.59958" lon="4.0277">
        <ele>1</ele>
        <time>2020-01-05T14:51:50Z</time>
      </trkpt>
      <trkpt lat="43.59961" lon="4.02781">
        <ele>1</ele>
        <time>2020-01-05T14:51:53Z</time>
      </trkpt>
      <trkpt lat="43.59976" lon="4.02828">
        <ele>1</ele>
        <time>2020-01-05T14:52:05Z</time>
      </trkpt>
      <trkpt lat="43.60005" lon="4.02944">
        <ele>1</ele>
        <time>2020-01-05T14:52:33Z</time>
      </trkpt>
      <trkpt lat="43.60014" lon="4.02961">
        <ele>1</ele>
        <time>2020-01-05T14:52:38Z</time>
      </trkpt>
      <trkpt lat="43.60017" lon="4.02977">
        <ele>1</ele>
        <time>2020-01-05T14:52:42Z</time>
      </trkpt>
      <trkpt lat="43.60094" lon="4.03445">
        <ele>1</ele>
      </trkpt>
      <trkpt lat="43.60081" lon="4.03859">
        <ele>1</ele>
      </trkpt>
      <trkpt lat="43.59997" lon="4.03844">
        <ele>1</ele>
      </trkpt>
      <trkpt lat="43.60004" lon="4.03913">
        <ele>1</ele>
      </trkpt>
      <trkpt lat="43.59918" lon="4.04009">
        <ele>1</ele>
      </trkpt>
      <trkpt lat="43.59528" lon="4.03951">
        <ele>1</ele>
      </trkpt>
      <trkpt lat="43.59446" lon="4.04117">
        <ele>1</ele>
      </trkpt>
      <trkpt lat="43.59446" lon="4.04308">
        <ele>1</ele>
      </trkpt>
      <trkpt lat="43.59514" lon="4.0487">
        <ele>1</ele>
      </trkpt>
      <trkpt lat="43.5954" lon="4.05113">
        <ele>1</ele>
      </trkpt>
      <trkpt lat="43.59582" lon="4.0524">
        <ele>1</ele>
      </trkpt>
      <trkpt lat="43.59586" lon="4.05252">
        <ele>1</ele>
      </trkpt>
      <trkpt lat="43.59588" lon="4.05255">
        <ele>1</ele>
      </trkpt>
      <trkpt lat="43.59587" lon="4.05265">
        <ele>1</ele>
        <time>2020-01-05T15:06:55Z</time>
      </trkpt>
      <trkpt lat="43.5959" lon="4.05267">
        <ele>1</ele>
        <time>2020-01-05T15:06:58Z</time>
      </trkpt>
      <trkpt lat="43.59589" lon="4.05265">
        <ele>1</ele>
        <time>2020-01-05T15:07:36Z</time>
      </trkpt>
      <trkpt lat="43.5959" lon="4.05264">
        <ele>1</ele>
        <time>2020-01-05T15:08:08Z</time>
      </trkpt>
      <trkpt lat="43.59591" lon="4.05267">
        <ele>1</ele>
        <time>2020-01-05T15:08:11Z</time>
      </trkpt>
      <trkpt lat="43.59595" lon="4.05277">
        <ele>1</ele>
        <time>2020-01-05T15:08:24Z</time>
      </trkpt>
      <trkpt lat="43.59596" lon="4.05282">
        <ele>1</ele>
        <time>2020-01-05T15:08:29Z</time>
      </trkpt>
      <trkpt lat="43.5959" lon="4.05272">
        <ele>1</ele>
        <time>2020-01-05T15:08:40Z</time>
      </trkpt>
      <trkpt lat="43.5959" lon="4.0527">
        <ele>1</ele>
        <time>2020-01-05T15:08:41Z</time>
      </trkpt>
      <trkpt lat="43.5959" lon="4.05269">
        <ele>1</ele>
        <time>2020-01-05T15:08:42Z</time>
      </trkpt>
      <trkpt lat="43.59588" lon="4.05267">
        <ele>1</ele>
        <time>2020-01-05T15:08:44Z</time>
      </trkpt>
      <trkpt lat="43.59588" lon="4.05266">
        <ele>1</ele>
        <time>2020-01-05T15:09:16Z</time>
      </trkpt>
      <trkpt lat="43.59587" lon="4.05265">
        <ele>1</ele>
        <time>2020-01-05T15:09:25Z</time>
      </trkpt>
      <trkpt lat="43.59587" lon="4.05263">
        <ele>1</ele>
        <time>2020-01-05T15:09:27Z</time>
      </trkpt>
      <trkpt lat="43.59587" lon="4.05261">
        <ele>1</ele>
        <time>2020-01-05T15:09:29Z</time>
      </trkpt>
      <trkpt lat="43.59587" lon="4.05259">
        <ele>1</ele>
        <time>2020-01-05T15:09:34Z</time>
      </trkpt>
      <trkpt lat="43.5959" lon="4.05261">
        <ele>1</ele>
        <time>2020-01-05T15:10:40Z</time>
      </trkpt>
      <trkpt lat="43.59591" lon="4.05271">
        <ele>1</ele>
        <time>2020-01-05T15:11:10Z</time>
      </trkpt>
      <trkpt lat="43.59603" lon="4.05305">
        <ele>1</ele>
        <time>2020-01-05T15:11:22Z</time>
      </trkpt>
      <trkpt lat="43.59605" lon="4.0531">
        <ele>1</ele>
        <time>2020-01-05T15:11:24Z</time>
      </trkpt>
      <trkpt lat="43.59653" lon="4.05433">
        <ele>2</ele>
        <time>2020-01-05T15:11:54Z</time>
      </trkpt>
      <trkpt lat="43.5968" lon="4.05493">
        <ele>1</ele>
        <time>2020-01-05T15:12:07Z</time>
      </trkpt>
      <trkpt lat="43.59686" lon="4.05498">
        <ele>1</ele>
        <time>2020-01-05T15:12:09Z</time>
      </trkpt>
      <trkpt lat="43.59689" lon="4.05498">
        <ele>1</ele>
        <time>2020-01-05T15:12:10Z</time>
      </trkpt>
      <trkpt lat="43.59696" lon="4.05494">
        <ele>1</ele>
        <time>2020-01-05T15:12:12Z</time>
      </trkpt>
      <trkpt lat="43.59698" lon="4.05491">
        <ele>1</ele>
        <time>2020-01-05T15:12:13Z</time>
      </trkpt>
      <trkpt lat="43.59711" lon="4.05468">
        <ele>1</ele>
        <time>2020-01-05T15:12:20Z</time>
      </trkpt>
      <trkpt lat="43.59711" lon="4.05465">
        <ele>1</ele>
        <time>2020-01-05T15:12:22Z</time>
      </trkpt>
      <trkpt lat="43.59712" lon="4.05462">
        <ele>1</ele>
        <time>2020-01-05T15:12:26Z</time>
      </trkpt>
      <trkpt lat="43.59787" lon="4.05353">
        <ele>1</ele>
        <time>2020-01-05T15:12:56Z</time>
      </trkpt>
      <trkpt lat="43.59871" lon="4.0523">
        <ele>1</ele>
        <time>2020-01-05T15:13:26Z</time>
      </trkpt>
      <trkpt lat="43.59954" lon="4.05114">
        <ele>2</ele>
        <time>2020-01-05T15:13:56Z</time>
      </trkpt>
      <trkpt lat="43.6001" lon="4.05011">
        <ele>1</ele>
        <time>2020-01-05T15:14:19Z</time>
      </trkpt>
      <trkpt lat="43.60069" lon="4.04857">
        <ele>3</ele>
        <time>2020-01-05T15:14:49Z</time>
      </trkpt>
      <trkpt lat="43.60081" lon="4.04816">
        <ele>3</ele>
        <time>2020-01-05T15:14:57Z</time>
      </trkpt>
      <trkpt lat="43.60087" lon="4.04795">
        <ele>1</ele>
        <time>2020-01-05T15:15:01Z</time>
      </trkpt>
      <trkpt lat="43.60134" lon="4.04656">
        <ele>2</ele>
        <time>2020-01-05T15:15:30Z</time>
      </trkpt>
      <trkpt lat="43.60139" lon="4.04641">
        <ele>2</ele>
        <time>2020-01-05T15:15:33Z</time>
      </trkpt>
      <trkpt lat="43.60181" lon="4.04536">
        <ele>1</ele>
        <time>2020-01-05T15:15:57Z</time>
      </trkpt>
      <trkpt lat="43.6018" lon="4.04535">
        <ele>1</ele>
        <time>2020-01-05T15:16:04Z</time>
      </trkpt>
      <trkpt lat="43.60218" lon="4.04423">
        <ele>1</ele>
        <time>2020-01-05T15:16:34Z</time>
      </trkpt>
      <trkpt lat="43.60227" lon="4.04398">
        <ele>1</ele>
        <time>2020-01-05T15:16:38Z</time>
      </trkpt>
      <trkpt lat="43.60235" lon="4.04384">
        <ele>1</ele>
        <time>2020-01-05T15:16:41Z</time>
      </trkpt>
      <trkpt lat="43.60245" lon="4.04374">
        <ele>1</ele>
        <time>2020-01-05T15:16:45Z</time>
      </trkpt>
      <trkpt lat="43.60263" lon="4.0436">
        <ele>1</ele>
        <time>2020-01-05T15:16:52Z</time>
      </trkpt>
      <trkpt lat="43.60265" lon="4.04358">
        <ele>1</ele>
        <time>2020-01-05T15:16:53Z</time>
      </trkpt>
      <trkpt lat="43.60267" lon="4.04357">
        <ele>1</ele>
        <time>2020-01-05T15:16:56Z</time>
      </trkpt>
      <trkpt lat="43.60268" lon="4.04357">
        <ele>1</ele>
        <time>2020-01-05T15:17:04Z</time>
      </trkpt>
      <trkpt lat="43.60267" lon="4.04359">
        <ele>1</ele>
        <time>2020-01-05T15:17:30Z</time>
      </trkpt>
      <trkpt lat="43.60278" lon="4.04347">
        <ele>1</ele>
        <time>2020-01-05T15:17:39Z</time>
      </trkpt>
      <trkpt lat="43.60353" lon="4.04289">
        <ele>1</ele>
        <time>2020-01-05T15:18:02Z</time>
      </trkpt>
      <trkpt lat="43.60361" lon="4.04285">
        <ele>1</ele>
        <time>2020-01-05T15:18:04Z</time>
      </trkpt>
      <trkpt lat="43.60439" lon="4.0423">
        <ele>1</ele>
        <time>2020-01-05T15:18:24Z</time>
      </trkpt>
      <trkpt lat="43.60444" lon="4.04222">
        <ele>1</ele>
        <time>2020-01-05T15:18:26Z</time>
      </trkpt>
      <trkpt lat="43.60447" lon="4.04213">
        <ele>1</ele>
        <time>2020-01-05T15:18:28Z</time>
      </trkpt>
      <trkpt lat="43.60448" lon="4.04208">
        <ele>1</ele>
        <time>2020-01-05T15:18:29Z</time>
      </trkpt>
      <trkpt lat="43.60447" lon="4.04203">
        <ele>1</ele>
        <time>2020-01-05T15:18:30Z</time>
      </trkpt>
      <trkpt lat="43.60407" lon="4.04107">
        <ele>1</ele>
        <time>2020-01-05T15:18:52Z</time>
      </trkpt>
      <trkpt lat="43.60403" lon="4.04087">
        <ele>1</ele>
        <time>2020-01-05T15:18:56Z</time>
      </trkpt>
      <trkpt lat="43.60401" lon="4.0406">
        <ele>1</ele>
        <time>2020-01-05T15:19:02Z</time>
      </trkpt>
      <trkpt lat="43.6041" lon="4.04019">
        <ele>1</ele>
        <time>2020-01-05T15:19:10Z</time>
      </trkpt>
      <trkpt lat="43.60414" lon="4.04009">
        <ele>1</ele>
        <time>2020-01-05T15:19:12Z</time>
      </trkpt>
      <trkpt lat="43.6042" lon="4.04002">
        <ele>1</ele>
        <time>2020-01-05T15:19:14Z</time>
      </trkpt>
      <trkpt lat="43.60461" lon="4.03982">
        <ele>1</ele>
        <time>2020-01-05T15:19:24Z</time>
      </trkpt>
      <trkpt lat="43.60576" lon="4.03956">
        <ele>1</ele>
        <time>2020-01-05T15:19:53Z</time>
      </trkpt>
      <trkpt lat="43.6059" lon="4.03958">
        <ele>1</ele>
        <time>2020-01-05T15:19:57Z</time>
      </trkpt>
      <trkpt lat="43.60607" lon="4.03963">
        <ele>1</ele>
        <time>2020-01-05T15:20:02Z</time>
      </trkpt>
      <trkpt lat="43.60615" lon="4.03963">
        <ele>1</ele>
        <time>2020-01-05T15:20:04Z</time>
      </trkpt>
      <trkpt lat="43.60683" lon="4.03931">
        <ele>1</ele>
        <time>2020-01-05T15:20:21Z</time>
      </trkpt>
      <trkpt lat="43.60766" lon="4.03847">
        <ele>1</ele>
        <time>2020-01-05T15:20:51Z</time>
      </trkpt>
      <trkpt lat="43.60805" lon="4.03811">
        <ele>2</ele>
        <time>2020-01-05T15:21:04Z</time>
      </trkpt>
      <trkpt lat="43.60822" lon="4.038">
        <ele>2</ele>
        <time>2020-01-05T15:21:09Z</time>
      </trkpt>
      <trkpt lat="43.60842" lon="4.03785">
        <ele>2</ele>
        <time>2020-01-05T15:21:15Z</time>
      </trkpt>
      <trkpt lat="43.60844" lon="4.03782">
        <ele>2</ele>
        <time>2020-01-05T15:21:16Z</time>
      </trkpt>
      <trkpt lat="43.60846" lon="4.03778">
        <ele>2</ele>
        <time>2020-01-05T15:21:17Z</time>
      </trkpt>
      <trkpt lat="43.60845" lon="4.03773">
        <ele>2</ele>
        <time>2020-01-05T15:21:18Z</time>
      </trkpt>
      <trkpt lat="43.60774" lon="4.03623">
        <ele>1</ele>
        <time>2020-01-05T15:21:48Z</time>
      </trkpt>
      <trkpt lat="43.60707" lon="4.03499">
        <ele>1</ele>
        <time>2020-01-05T15:22:11Z</time>
      </trkpt>
      <trkpt lat="43.60705" lon="4.03493">
        <ele>1</ele>
        <time>2020-01-05T15:22:12Z</time>
      </trkpt>
      <trkpt lat="43.60705" lon="4.03487">
        <ele>1</ele>
        <time>2020-01-05T15:22:13Z</time>
      </trkpt>
      <trkpt lat="43.60705" lon="4.03482">
        <ele>1</ele>
        <time>2020-01-05T15:22:14Z</time>
      </trkpt>
      <trkpt lat="43.60707" lon="4.03478">
        <ele>1</ele>
        <time>2020-01-05T15:22:15Z</time>
      </trkpt>
      <trkpt lat="43.60714" lon="4.03473">
        <ele>1</ele>
        <time>2020-01-05T15:22:17Z</time>
      </trkpt>
      <trkpt lat="43.60759" lon="4.03432">
        <ele>1</ele>
        <time>2020-01-05T15:22:29Z</time>
      </trkpt>
      <trkpt lat="43.60858" lon="4.03319">
        <ele>1</ele>
        <time>2020-01-05T15:22:59Z</time>
      </trkpt>
      <trkpt lat="43.60914" lon="4.03238">
        <ele>1</ele>
        <time>2020-01-05T15:23:20Z</time>
      </trkpt>
      <trkpt lat="43.60978" lon="4.03117">
        <ele>2</ele>
        <time>2020-01-05T15:23:47Z</time>
      </trkpt>
      <trkpt lat="43.61141" lon="4.02832">
        <ele>4</ele>
      </trkpt>
      <trkpt lat="43.61103" lon="4.02757">
        <ele>5</ele>
      </trkpt>
      <trkpt lat="43.6119" lon="4.02614">
        <ele>2</ele>
      </trkpt>
      <trkpt lat="43.61266" lon="4.02454">
        <ele>3</ele>
      </trkpt>
      <trkpt lat="43.61179" lon="4.02334">
        <ele>4</ele>
      </trkpt>
      <trkpt lat="43.61107" lon="4.02143">
        <ele>5</ele>
        <time>2020-01-05T15:27:34Z</time>
      </trkpt>
      <trkpt lat="43.61111" lon="4.02131">
        <ele>5</ele>
        <time>2020-01-05T15:27:38Z</time>
      </trkpt>
      <trkpt lat="43.61112" lon="4.02131">
        <ele>5</ele>
        <time>2020-01-05T15:28:01Z</time>
      </trkpt>
      <trkpt lat="43.61113" lon="4.02133">
        <ele>5</ele>
        <time>2020-01-05T15:28:04Z</time>
      </trkpt>
      <trkpt lat="43.61113" lon="4.02133">
        <ele>5</ele>
        <time>2020-01-05T15:28:19Z</time>
      </trkpt>
      <trkpt lat="43.61193" lon="4.02034">
        <ele>6</ele>
        <time>2020-01-05T15:28:47Z</time>
      </trkpt>
      <trkpt lat="43.61231" lon="4.02005">
        <ele>6</ele>
        <time>2020-01-05T15:28:58Z</time>
      </trkpt>
      <trkpt lat="43.61273" lon="4.01982">
        <ele>6</ele>
        <time>2020-01-05T15:29:09Z</time>
      </trkpt>
      <trkpt lat="43.61303" lon="4.01966">
        <ele>6</ele>
        <time>2020-01-05T15:29:18Z</time>
      </trkpt>
      <trkpt lat="43.61325" lon="4.01957">
        <ele>6</ele>
        <time>2020-01-05T15:29:24Z</time>
      </trkpt>
      <trkpt lat="43.61344" lon="4.01941">
        <ele>6</ele>
        <time>2020-01-05T15:29:31Z</time>
      </trkpt>
      <trkpt lat="43.61352" lon="4.01923">
        <ele>6</ele>
        <time>2020-01-05T15:29:35Z</time>
      </trkpt>
      <trkpt lat="43.61354" lon="4.01913">
        <ele>6</ele>
        <time>2020-01-05T15:29:37Z</time>
      </trkpt>
      <trkpt lat="43.61362" lon="4.01814">
        <ele>7</ele>
        <time>2020-01-05T15:29:54Z</time>
      </trkpt>
      <trkpt lat="43.61406" lon="4.0169">
        <ele>7</ele>
        <time>2020-01-05T15:30:18Z</time>
      </trkpt>
      <trkpt lat="43.6142" lon="4.01659">
        <ele>8</ele>
        <time>2020-01-05T15:30:25Z</time>
      </trkpt>
      <trkpt lat="43.61475" lon="4.01528">
        <ele>8</ele>
        <time>2020-01-05T15:30:55Z</time>
      </trkpt>
      <trkpt lat="43.61542" lon="4.01383">
        <ele>8</ele>
        <time>2020-01-05T15:31:25Z</time>
      </trkpt>
      <trkpt lat="43.61558" lon="4.01347">
        <ele>8</ele>
        <time>2020-01-05T15:31:32Z</time>
      </trkpt>
      <trkpt lat="43.61562" lon="4.01319">
        <ele>8</ele>
        <time>2020-01-05T15:31:38Z</time>
      </trkpt>
      <trkpt lat="43.61561" lon="4.01295">
        <ele>8</ele>
        <time>2020-01-05T15:31:42Z</time>
      </trkpt>
      <trkpt lat="43.61556" lon="4.01252">
        <ele>9</ele>
        <time>2020-01-05T15:31:51Z</time>
      </trkpt>
      <trkpt lat="43.61553" lon="4.01251">
        <ele>9</ele>
        <time>2020-01-05T15:31:55Z</time>
      </trkpt>
      <trkpt lat="43.61544" lon="4.0125">
        <ele>8</ele>
        <time>2020-01-05T15:31:59Z</time>
      </trkpt>
      <trkpt lat="43.61531" lon="4.01246">
        <ele>9</ele>
        <time>2020-01-05T15:32:02Z</time>
      </trkpt>
      <trkpt lat="43.61516" lon="4.0124">
        <ele>8</ele>
        <time>2020-01-05T15:32:05Z</time>
      </trkpt>
      <trkpt lat="43.61492" lon="4.01222">
        <ele>8</ele>
        <time>2020-01-05T15:32:11Z</time>
      </trkpt>
      <trkpt lat="43.61474" lon="4.01203">
        <ele>8</ele>
        <time>2020-01-05T15:32:17Z</time>
      </trkpt>
      <trkpt lat="43.61467" lon="4.01199">
        <ele>8</ele>
        <time>2020-01-05T15:32:20Z</time>
      </trkpt>
      <trkpt lat="43.61461" lon="4.01202">
        <ele>8</ele>
        <time>2020-01-05T15:32:22Z</time>
      </trkpt>
      <trkpt lat="43.61457" lon="4.01201">
        <ele>8</ele>
        <time>2020-01-05T15:32:23Z</time>
      </trkpt>
      <trkpt lat="43.61451" lon="4.01197">
        <ele>8</ele>
        <time>2020-01-05T15:32:25Z</time>
      </trkpt>
      <trkpt lat="43.61439" lon="4.01184">
        <ele>9</ele>
        <time>2020-01-05T15:32:29Z</time>
      </trkpt>
      <trkpt lat="43.61425" lon="4.01167">
        <ele>10</ele>
        <time>2020-01-05T15:32:35Z</time>
      </trkpt>
      <trkpt lat="43.61356" lon="4.01028">
        <ele>10</ele>
        <time>2020-01-05T15:33:04Z</time>
      </trkpt>
      <trkpt lat="43.61348" lon="4.01019">
        <ele>9</ele>
        <time>2020-01-05T15:33:07Z</time>
      </trkpt>
      <trkpt lat="43.61338" lon="4.01014">
        <ele>9</ele>
        <time>2020-01-05T15:33:10Z</time>
      </trkpt>
      <trkpt lat="43.61335" lon="4.01012">
        <ele>9</ele>
        <time>2020-01-05T15:33:11Z</time>
      </trkpt>
      <trkpt lat="43.61333" lon="4.01009">
        <ele>9</ele>
        <time>2020-01-05T15:33:12Z</time>
      </trkpt>
      <trkpt lat="43.61331" lon="4.01007">
        <ele>9</ele>
        <time>2020-01-05T15:33:13Z</time>
      </trkpt>
      <trkpt lat="43.6133" lon="4.01004">
        <ele>9</ele>
        <time>2020-01-05T15:33:14Z</time>
      </trkpt>
      <trkpt lat="43.61329" lon="4.01001">
        <ele>9</ele>
        <time>2020-01-05T15:33:15Z</time>
      </trkpt>
      <trkpt lat="43.6133" lon="4.00987">
        <ele>8</ele>
        <time>2020-01-05T15:33:20Z</time>
      </trkpt>
      <trkpt lat="43.61329" lon="4.00981">
        <ele>8</ele>
        <time>2020-01-05T15:33:22Z</time>
      </trkpt>
      <trkpt lat="43.61331" lon="4.00946">
        <ele>8</ele>
        <time>2020-01-05T15:33:30Z</time>
      </trkpt>
      <trkpt lat="43.61331" lon="4.00938">
        <ele>8</ele>
        <time>2020-01-05T15:33:32Z</time>
      </trkpt>
      <trkpt lat="43.61329" lon="4.00912">
        <ele>8</ele>
        <time>2020-01-05T15:33:37Z</time>
      </trkpt>
      <trkpt lat="43.6133" lon="4.00833">
        <ele>7</ele>
        <time>2020-01-05T15:33:51Z</time>
      </trkpt>
      <trkpt lat="43.61322" lon="4.00786">
        <ele>6</ele>
        <time>2020-01-05T15:33:59Z</time>
      </trkpt>
      <trkpt lat="43.61292" lon="4.00714">
        <ele>6</ele>
        <time>2020-01-05T15:34:11Z</time>
      </trkpt>
      <trkpt lat="43.61264" lon="4.00678">
        <ele>6</ele>
        <time>2020-01-05T15:34:18Z</time>
      </trkpt>
      <trkpt lat="43.61246" lon="4.00658">
        <ele>7</ele>
        <time>2020-01-05T15:34:23Z</time>
      </trkpt>
      <trkpt lat="43.61241" lon="4.00649">
        <ele>7</ele>
        <time>2020-01-05T15:34:25Z</time>
      </trkpt>
      <trkpt lat="43.61157" lon="4.00567">
        <ele>7</ele>
        <time>2020-01-05T15:34:47Z</time>
      </trkpt>
      <trkpt lat="43.61039" lon="4.00492">
        <ele>7</ele>
        <time>2020-01-05T15:35:15Z</time>
      </trkpt>
      <trkpt lat="43.61026" lon="4.00475">
        <ele>7</ele>
        <time>2020-01-05T15:35:20Z</time>
      </trkpt>
      <trkpt lat="43.61023" lon="4.00468">
        <ele>7</ele>
        <time>2020-01-05T15:35:22Z</time>
      </trkpt>
      <trkpt lat="43.61023" lon="4.00464">
        <ele>7</ele>
        <time>2020-01-05T15:35:23Z</time>
      </trkpt>
      <trkpt lat="43.61025" lon="4.00451">
        <ele>7</ele>
        <time>2020-01-05T15:35:26Z</time>
      </trkpt>
      <trkpt lat="43.61023" lon="4.00447">
        <ele>7</ele>
        <time>2020-01-05T15:35:27Z</time>
      </trkpt>
      <trkpt lat="43.61022" lon="4.00444">
        <ele>7</ele>
        <time>2020-01-05T15:35:28Z</time>
      </trkpt>
      <trkpt lat="43.61018" lon="4.00441">
        <ele>7</ele>
        <time>2020-01-05T15:35:29Z</time>
      </trkpt>
      <trkpt lat="43.61015" lon="4.00439">
        <ele>7</ele>
        <time>2020-01-05T15:35:30Z</time>
      </trkpt>
      <trkpt lat="43.61" lon="4.00437">
        <ele>7</ele>
        <time>2020-01-05T15:35:34Z</time>
      </trkpt>
      <trkpt lat="43.60987" lon="4.00433">
        <ele>6</ele>
        <time>2020-01-05T15:35:38Z</time>
      </trkpt>
      <trkpt lat="43.60978" lon="4.00422">
        <ele>6</ele>
        <time>2020-01-05T15:35:41Z</time>
      </trkpt>
      <trkpt lat="43.60925" lon="4.00316">
        <ele>4</ele>
        <time>2020-01-05T15:35:58Z</time>
      </trkpt>
      <trkpt lat="43.60908" lon="4.00282">
        <ele>3</ele>
        <time>2020-01-05T15:36:04Z</time>
      </trkpt>
      <trkpt lat="43.60899" lon="4.00269">
        <ele>3</ele>
        <time>2020-01-05T15:36:07Z</time>
      </trkpt>
      <trkpt lat="43.608" lon="4.00181">
        <ele>4</ele>
        <time>2020-01-05T15:36:28Z</time>
      </trkpt>
      <trkpt lat="43.60634" lon="4.00084">
        <ele>3</ele>
        <time>2020-01-05T15:36:58Z</time>
      </trkpt>
      <trkpt lat="43.60528" lon="3.99981">
        <ele>4</ele>
        <time>2020-01-05T15:37:18Z</time>
      </trkpt>
      <trkpt lat="43.60375" lon="3.99802">
        <ele>4</ele>
        <time>2020-01-05T15:37:48Z</time>
      </trkpt>
      <trkpt lat="43.60238" lon="3.9966">
        <ele>5</ele>
        <time>2020-01-05T15:38:18Z</time>
      </trkpt>
      <trkpt lat="43.60209" lon="3.99627">
        <ele>4</ele>
        <time>2020-01-05T15:38:25Z</time>
      </trkpt>
      <trkpt lat="43.60199" lon="3.99597">
        <ele>4</ele>
        <time>2020-01-05T15:38:29Z</time>
      </trkpt>
      <trkpt lat="43.6014" lon="3.99414">
        <ele>5</ele>
        <time>2020-01-05T15:38:53Z</time>
      </trkpt>
      <trkpt lat="43.60042" lon="3.99216">
        <ele>5</ele>
        <time>2020-01-05T15:39:23Z</time>
      </trkpt>
      <trkpt lat="43.59973" lon="3.98996">
        <ele>5</ele>
        <time>2020-01-05T15:39:53Z</time>
      </trkpt>
      <trkpt lat="43.59901" lon="3.9878">
        <ele>5</ele>
        <time>2020-01-05T15:40:23Z</time>
      </trkpt>
      <trkpt lat="43.59822" lon="3.98554">
        <ele>3</ele>
        <time>2020-01-05T15:40:53Z</time>
      </trkpt>
      <trkpt lat="43.59741" lon="3.98349">
        <ele>2</ele>
        <time>2020-01-05T15:41:23Z</time>
      </trkpt>
      <trkpt lat="43.59675" lon="3.9816">
        <ele>5</ele>
        <time>2020-01-05T15:41:53Z</time>
      </trkpt>
      <trkpt lat="43.59603" lon="3.97954">
        <ele>3</ele>
        <time>2020-01-05T15:42:23Z</time>
      </trkpt>
      <trkpt lat="43.59568" lon="3.97808">
        <ele>4</ele>
        <time>2020-01-05T15:42:42Z</time>
      </trkpt>
      <trkpt lat="43.59552" lon="3.97774">
        <ele>4</ele>
        <time>2020-01-05T15:42:48Z</time>
      </trkpt>
      <trkpt lat="43.5955" lon="3.9777">
        <ele>4</ele>
        <time>2020-01-05T15:42:49Z</time>
      </trkpt>
      <trkpt lat="43.59546" lon="3.97767">
        <ele>4</ele>
        <time>2020-01-05T15:42:50Z</time>
      </trkpt>
      <trkpt lat="43.59542" lon="3.97766">
        <ele>4</ele>
        <time>2020-01-05T15:42:51Z</time>
      </trkpt>
      <trkpt lat="43.59539" lon="3.97767">
        <ele>4</ele>
        <time>2020-01-05T15:42:52Z</time>
      </trkpt>
      <trkpt lat="43.59534" lon="3.97771">
        <ele>4</ele>
        <time>2020-01-05T15:42:54Z</time>
      </trkpt>
      <trkpt lat="43.59532" lon="3.97773">
        <ele>4</ele>
        <time>2020-01-05T15:42:55Z</time>
      </trkpt>
      <trkpt lat="43.59529" lon="3.97775">
        <ele>4</ele>
        <time>2020-01-05T15:42:56Z</time>
      </trkpt>
      <trkpt lat="43.59521" lon="3.97772">
        <ele>4</ele>
        <time>2020-01-05T15:42:59Z</time>
      </trkpt>
      <trkpt lat="43.59518" lon="3.97772">
        <ele>4</ele>
        <time>2020-01-05T15:43:00Z</time>
      </trkpt>
      <trkpt lat="43.59516" lon="3.97772">
        <ele>4</ele>
        <time>2020-01-05T15:43:01Z</time>
      </trkpt>
      <trkpt lat="43.59515" lon="3.97774">
        <ele>4</ele>
        <time>2020-01-05T15:43:02Z</time>
      </trkpt>
      <trkpt lat="43.59514" lon="3.97776">
        <ele>4</ele>
        <time>2020-01-05T15:43:04Z</time>
      </trkpt>
    </trkseg>
  </trk>
</gpx>